Shelbina, Missouri
Current Conditions -  °F | °C
As of 1:12 PM on Sunday 23 Nov 2014 (Local Time) from KIRK Reporting Station
Light Rain Light Rain  
Wind Chill: 12°   Ceiling: 400
Heat Index: 12°   Visibility: 1.5mi
Dew Point: 12°   Wind: 8mph
Humidity: 100%   Direction: 190°S
Pressure: 29.39"   Gusts: NA
Location:  39.69°N, 92.04°W
Report Text: KIRK 231912Z AUTO 19007KT 1 1/2SM -RA BR OVC004 12/12 A2939 RMK AO2 CIG 003V007 P0002 T01220122
Loading
Personal Weather Stations






























Interactive Weather Map New forecast layout! Learn more

10-Day Weather Forecast

Advertisements
Track Severe Weather on mobile